Time;durP1;ratioP1;P1;durP2;ratioP2;P2;SDS_P1;SDS_P2;PMS_P1;PMS_P2;Temp;Humidity;BMP_temperature;BMP_pressure;BME280_temperature;BME280_humidity;BME280_pressure;Samples;Min_cycle;Max_cycle;Signal;HPM_P1;HPM_P2
2023/07/20 04:00:50;;;;;;;0.90;0.80;;;14.60;99.90;;;;;;5645581;23;21026;-71
2023/07/20 04:03:17;;;;;;;1.07;1.03;;;14.60;99.90;;;;;;4914053;29;20609;-71
2023/07/20 04:05:44;;;;;;;0.90;0.90;;;14.60;99.90;;;;;;4916235;29;20486;-71
2023/07/20 04:08:11;;;;;;;0.50;0.50;;;14.60;99.90;;;;;;4916021;29;20489;-71
2023/07/20 04:10:38;;;;;;;0.67;0.67;;;14.60;99.90;;;;;;4912188;29;20483;-70
2023/07/20 04:13:05;;;;;;;0.63;0.63;;;14.60;99.90;;;;;;4896610;29;20463;-71
2023/07/20 04:15:32;;;;;;;1.00;1.00;;;14.60;99.90;;;;;;4921730;23;20446;-70
2023/07/20 04:18:00;;;;;;;1.37;0.73;;;14.60;99.90;;;;;;4916201;29;20462;-70
2023/07/20 04:20:27;;;;;;;0.73;0.73;;;14.60;99.90;;;;;;4916150;29;20929;-71
2023/07/20 04:22:54;;;;;;;1.37;1.27;;;14.70;99.90;;;;;;4916718;29;20467;-70
2023/07/20 04:25:21;;;;;;;1.07;1.07;;;14.70;99.90;;;;;;4914765;29;20486;-71
2023/07/20 04:27:48;;;;;;;1.13;1.13;;;14.70;99.90;;;;;;4894331;29;20575;-71
2023/07/20 04:30:15;;;;;;;0.83;0.77;;;14.70;99.90;;;;;;4895643;29;20522;-70
2023/07/20 04:32:44;;;;;;;1.23;1.23;;;14.70;99.90;;;;;;4896622;29;20470;-72
2023/07/20 04:35:12;;;;;;;1.30;1.20;;;14.80;99.90;;;;;;4896186;29;20877;-70
2023/07/20 04:37:46;;;;;;;1.60;1.00;;;14.80;99.90;;;;;;4896411;29;20759;-71
2023/07/20 04:40:13;;;;;;;0.77;0.77;;;14.80;99.90;;;;;;4900725;29;20814;-70
2023/07/20 04:42:40;;;;;;;0.60;0.60;;;14.90;99.90;;;;;;4914822;29;20458;-71
2023/07/20 04:45:07;;;;;;;0.50;0.50;;;14.90;99.90;;;;;;4915629;29;20969;-70
2023/07/20 04:47:34;;;;;;;0.70;0.70;;;15.00;99.90;;;;;;4915623;29;20822;-71
2023/07/20 04:50:01;;;;;;;0.57;0.57;;;15.10;99.90;;;;;;4915462;29;20806;-71
2023/07/20 04:52:29;;;;;;;0.80;0.80;;;15.10;99.90;;;;;;4914945;29;20937;-71
2023/07/20 04:54:55;;;;;;;0.50;0.50;;;15.10;99.90;;;;;;4914857;29;20498;-71
2023/07/20 04:57:24;;;;;;;1.00;1.00;;;15.10;99.90;;;;;;4914280;29;20505;-72
2023/07/20 04:59:52;;;;;;;1.17;1.17;;;15.10;99.90;;;;;;4915015;29;20525;-73
2023/07/20 05:02:19;;;;;;;0.50;0.50;;;15.20;99.90;;;;;;4914904;29;20474;-73
2023/07/20 05:04:45;;;;;;;0.70;0.70;;;15.10;99.90;;;;;;4914914;29;20938;-72
2023/07/20 05:07:12;;;;;;;0.97;0.97;;;15.20;99.90;;;;;;4914738;29;20980;-73
2023/07/20 05:09:40;;;;;;;0.90;0.90;;;15.20;99.90;;;;;;4915381;29;20851;-72
2023/07/20 05:12:07;;;;;;;0.80;0.80;;;15.20;99.90;;;;;;4915801;29;20897;-70
2023/07/20 05:14:34;;;;;;;0.70;0.70;;;15.20;99.90;;;;;;4915109;29;20491;-71
2023/07/20 05:17:01;;;;;;;1.17;1.07;;;15.30;99.90;;;;;;4914832;29;20500;-71
2023/07/20 05:19:28;;;;;;;1.03;1.03;;;15.30;99.90;;;;;;4914589;29;20466;-71
2023/07/20 05:21:54;;;;;;;1.80;1.30;;;15.30;99.90;;;;;;4914948;29;20486;-71
2023/07/20 05:24:21;;;;;;;1.60;0.50;;;15.40;99.90;;;;;;4914526;29;20570;-71
2023/07/20 05:26:49;;;;;;;0.87;0.87;;;15.50;99.90;;;;;;4914991;29;20487;-70
2023/07/20 05:29:16;;;;;;;0.80;0.80;;;15.50;99.90;;;;;;4914388;29;20474;-71
2023/07/20 05:31:43;;;;;;;0.73;0.73;;;15.60;99.90;;;;;;4914674;29;20562;-72
2023/07/20 05:34:09;;;;;;;1.53;1.53;;;15.60;99.90;;;;;;4914225;29;20543;-71
2023/07/20 05:36:36;;;;;;;0.80;0.80;;;15.70;99.90;;;;;;4914771;29;20490;-71
2023/07/20 05:39:03;;;;;;;0.70;0.70;;;15.80;99.90;;;;;;4904617;29;21023;-71
2023/07/20 05:41:30;;;;;;;0.87;0.87;;;15.80;99.90;;;;;;4914446;29;20470;-71
2023/07/20 05:43:58;;;;;;;1.27;1.27;;;15.90;99.90;;;;;;4913773;29;20493;-71
2023/07/20 05:46:25;;;;;;;0.83;0.83;;;16.00;99.90;;;;;;4914997;29;20502;-71
2023/07/20 05:48:52;;;;;;;1.23;1.13;;;16.00;99.90;;;;;;4914279;29;20958;-71
2023/07/20 05:51:18;;;;;;;0.30;0.30;;;16.00;99.90;;;;;;4914831;29;20470;-71
2023/07/20 05:53:45;;;;;;;1.00;1.00;;;16.00;99.90;;;;;;4914478;29;20477;-71
2023/07/20 05:56:12;;;;;;;0.60;0.60;;;16.00;99.90;;;;;;4914375;29;21005;-71
2023/07/20 05:58:39;;;;;;;0.73;0.73;;;16.10;99.90;;;;;;4914045;29;20463;-71
2023/07/20 06:01:07;;;;;;;0.60;0.60;;;16.20;99.90;;;;;;4914395;29;20477;-71
2023/07/20 06:03:34;;;;;;;0.73;0.73;;;16.40;99.90;;;;;;4914430;29;20655;-71
2023/07/20 06:06:01;;;;;;;1.10;1.10;;;16.60;99.90;;;;;;4914044;29;20656;-71
2023/07/20 06:08:28;;;;;;;0.40;0.40;;;16.80;99.90;;;;;;4914159;29;20462;-72
2023/07/20 06:10:55;;;;;;;0.37;0.37;;;16.90;99.90;;;;;;4914339;29;20545;-71
2023/07/20 06:13:21;;;;;;;0.30;0.30;;;16.90;99.90;;;;;;4913137;29;20470;-72
2023/07/20 06:15:48;;;;;;;0.73;0.73;;;17.00;99.90;;;;;;4913918;29;20498;-72
2023/07/20 06:18:16;;;;;;;0.30;0.30;;;16.90;99.90;;;;;;4914399;29;20839;-71
2023/07/20 06:20:43;;;;;;;0.70;0.70;;;16.90;99.90;;;;;;4914432;29;20835;-71
2023/07/20 06:23:10;;;;;;;0.27;0.27;;;16.90;99.90;;;;;;4913985;29;20488;-71
2023/07/20 06:25:36;;;;;;;0.53;0.53;;;17.00;99.90;;;;;;4913775;29;21032;-71
2023/07/20 06:28:04;;;;;;;0.40;0.40;;;17.10;99.90;;;;;;4914456;29;20470;-70
2023/07/20 06:30:31;;;;;;;1.70;0.67;;;17.40;99.90;;;;;;4914362;29;20512;-70
2023/07/20 06:32:58;;;;;;;0.50;0.50;;;17.70;99.90;;;;;;4914450;29;20468;-71
2023/07/20 06:35:26;;;;;;;0.77;0.77;;;18.20;99.90;;;;;;4913805;29;20993;-71
2023/07/20 06:37:53;;;;;;;0.80;0.80;;;19.10;99.90;;;;;;4913701;29;20530;-72
2023/07/20 06:40:20;;;;;;;0.50;0.50;;;20.50;99.90;;;;;;4900801;29;20613;-71
2023/07/20 06:42:46;;;;;;;0.40;0.40;;;21.60;99.90;;;;;;4894429;29;20470;-72
2023/07/20 06:45:13;;;;;;;0.70;0.70;;;21.90;99.90;;;;;;4895023;29;20470;-71
2023/07/20 06:47:40;;;;;;;0.80;0.80;;;21.80;99.90;;;;;;4894697;29;20475;-70
2023/07/20 06:50:08;;;;;;;0.80;0.80;;;21.60;99.90;;;;;;4895145;29;20576;-70
2023/07/20 06:52:36;;;;;;;0.60;0.60;;;21.00;99.90;;;;;;4895236;29;20484;-71
2023/07/20 06:55:03;;;;;;;0.70;0.70;;;20.80;99.90;;;;;;4895053;29;21042;-69
2023/07/20 06:57:30;;;;;;;0.50;0.50;;;21.20;99.90;;;;;;4894255;29;20505;-70
2023/07/20 06:59:57;;;;;;;0.80;0.80;;;21.50;99.90;;;;;;4895558;29;20471;-70
2023/07/20 07:02:24;;;;;;;0.53;0.53;;;21.60;99.90;;;;;;4895208;29;20650;-72
2023/07/20 07:04:50;;;;;;;0.50;0.30;;;22.40;99.90;;;;;;4895217;29;20796;-70
2023/07/20 07:07:17;;;;;;;0.30;0.30;;;23.10;99.90;;;;;;4895099;29;20501;-69
2023/07/20 07:09:45;;;;;;;0.50;0.47;;;23.70;99.90;;;;;;4895275;29;20926;-71
2023/07/20 07:12:12;;;;;;;0.37;0.37;;;24.00;99.90;;;;;;4894672;29;20503;-71
2023/07/20 07:14:38;;;;;;;0.50;0.50;;;23.80;99.90;;;;;;4895001;29;20463;-72
2023/07/20 07:17:05;;;;;;;0.40;0.40;;;24.10;99.90;;;;;;4894797;29;21001;-71
2023/07/20 07:19:32;;;;;;;0.30;0.30;;;24.80;99.90;;;;;;4895151;29;20565;-71
2023/07/20 07:21:59;;;;;;;0.77;0.50;;;24.40;99.90;;;;;;4894860;29;20965;-70
2023/07/20 07:24:26;;;;;;;0.63;0.60;;;23.80;99.90;;;;;;4894418;29;20490;-70
2023/07/20 07:26:54;;;;;;;0.70;0.70;;;24.00;99.90;;;;;;4897973;29;20491;-71
2023/07/20 07:29:20;;;;;;;0.40;0.40;;;23.40;99.90;;;;;;4897879;29;20470;-71
2023/07/20 07:31:47;;;;;;;0.20;0.20;;;22.60;99.90;;;;;;4898293;29;20476;-71
2023/07/20 07:34:14;;;;;;;0.37;0.37;;;23.10;99.90;;;;;;4898007;29;20474;-71
2023/07/20 07:36:40;;;;;;;0.40;0.40;;;23.60;99.90;;;;;;4898101;29;20506;-70
2023/07/20 07:39:07;;;;;;;0.40;0.40;;;22.80;99.90;;;;;;4896458;29;20470;-70
2023/07/20 07:41:34;;;;;;;0.43;0.43;;;22.50;99.90;;;;;;4917213;29;20829;-70
2023/07/20 07:44:02;;;;;;;0.37;0.37;;;23.20;99.90;;;;;;4916469;29;20584;-70
2023/07/20 07:46:28;;;;;;;0.30;0.30;;;23.60;99.90;;;;;;4916883;29;20486;-70
2023/07/20 07:48:55;;;;;;;0.40;0.40;;;24.00;99.90;;;;;;4916642;29;20946;-70
2023/07/20 07:51:22;;;;;;;0.53;0.53;;;24.70;99.90;;;;;;4916797;29;20965;-71
2023/07/20 07:53:49;;;;;;;0.30;0.30;;;25.30;99.90;;;;;;4916425;29;20909;-70
2023/07/20 07:56:16;;;;;;;0.30;0.30;;;25.30;99.90;;;;;;4916646;29;20490;-70
2023/07/20 07:58:43;;;;;;;0.60;0.60;;;24.70;99.90;;;;;;4916547;29;20489;-70
2023/07/20 08:01:11;;;;;;;0.50;0.50;;;24.70;99.90;;;;;;4916735;29;20477;-70
2023/07/20 08:03:38;;;;;;;0.40;0.40;;;25.00;99.90;;;;;;4916387;29;20961;-70
2023/07/20 08:06:05;;;;;;;0.30;0.30;;;24.50;99.90;;;;;;4916223;29;20845;-70
2023/07/20 08:08:32;;;;;;;0.20;0.20;;;23.50;99.90;;;;;;4916697;29;20490;-70
2023/07/20 08:10:59;;;;;;;0.43;0.43;;;23.10;99.90;;;;;;4916595;29;20475;-70
2023/07/20 08:13:26;;;;;;;0.50;0.50;;;22.90;99.90;;;;;;4916137;29;20596;-70
2023/07/20 08:15:54;;;;;;;0.53;0.53;;;23.70;99.90;;;;;;4916001;29;20517;-70
2023/07/20 08:18:22;;;;;;;0.30;0.30;;;24.30;99.90;;;;;;4916453;29;20471;-71
2023/07/20 08:20:49;;;;;;;0.20;0.20;;;25.00;99.90;;;;;;4916233;29;20474;-70
2023/07/20 08:23:16;;;;;;;0.30;0.30;;;25.10;99.90;;;;;;4916471;29;20503;-70
2023/07/20 08:25:44;;;;;;;1.03;0.40;;;24.60;99.90;;;;;;4916122;29;20487;-70
2023/07/20 08:28:11;;;;;;;0.33;0.33;;;23.80;99.90;;;;;;4915663;29;20545;-70
2023/07/20 08:30:43;;;;;;;0.30;0.30;;;23.40;99.90;;;;;;4916168;29;20920;-70
2023/07/20 08:33:10;;;;;;;0.50;0.50;;;23.20;99.90;;;;;;4916014;29;20482;-70
2023/07/20 08:35:38;;;;;;;0.37;0.37;;;23.50;99.90;;;;;;4915463;29;21033;-71
2023/07/20 08:38:05;;;;;;;0.40;0.40;;;23.30;99.90;;;;;;4915764;29;20467;-69
2023/07/20 08:40:32;;;;;;;0.30;0.30;;;23.20;99.90;;;;;;4911742;29;20561;-69
2023/07/20 08:43:00;;;;;;;0.30;0.30;;;23.20;99.90;;;;;;4915546;29;20975;-70
2023/07/20 08:45:29;;;;;;;1.67;0.50;;;22.90;99.90;;;;;;4915346;29;20519;-69
2023/07/20 08:47:57;;;;;;;0.53;0.53;;;22.90;99.90;;;;;;4915446;29;20552;-69
2023/07/20 08:50:25;;;;;;;0.50;0.50;;;22.80;99.90;;;;;;4915550;29;20550;-69
2023/07/20 08:52:53;;;;;;;0.30;0.30;;;22.50;99.90;;;;;;4915685;29;20575;-70
2023/07/20 08:55:22;;;;;;;0.60;0.60;;;22.20;99.90;;;;;;4915105;29;20518;-69
2023/07/20 08:57:51;;;;;;;0.37;0.37;;;21.90;99.90;;;;;;4914962;29;20537;-70
2023/07/20 09:00:20;;;;;;;0.37;0.37;;;21.70;99.90;;;;;;4915373;29;20534;-69
2023/07/20 09:02:48;;;;;;;0.30;0.30;;;21.30;99.90;;;;;;4915294;29;20795;-70
2023/07/20 09:05:14;;;;;;;0.57;0.30;;;21.20;99.90;;;;;;4915057;29;20477;-69
2023/07/20 09:07:41;;;;;;;0.57;0.57;;;21.20;99.90;;;;;;4915245;29;20470;-69
2023/07/20 09:10:10;;;;;;;0.40;0.40;;;21.00;99.90;;;;;;4916263;29;20474;-70
2023/07/20 09:12:37;;;;;;;0.20;0.20;;;21.10;99.90;;;;;;4916187;29;20729;-69
2023/07/20 09:15:04;;;;;;;0.57;0.57;;;21.10;99.90;;;;;;4915911;29;20484;-69
2023/07/20 09:17:31;;;;;;;0.37;0.37;;;21.20;99.90;;;;;;4915755;29;20509;-70
2023/07/20 09:19:58;;;;;;;0.40;0.40;;;21.00;99.90;;;;;;4915159;29;20473;-69
2023/07/20 09:22:30;;;;;;;2.73;0.50;;;21.00;99.90;;;;;;4915004;29;20474;-69
2023/07/20 09:24:58;;;;;;;0.57;0.57;;;20.90;99.90;;;;;;4914955;29;20504;-69
2023/07/20 09:27:36;;;;;;;7.73;0.50;;;20.80;99.90;;;;;;4914181;29;20495;-69
2023/07/20 09:30:03;;;;;;;0.47;0.47;;;20.70;99.90;;;;;;4915067;29;20567;-69
2023/07/20 09:32:30;;;;;;;0.57;0.57;;;20.70;99.90;;;;;;4914714;29;20471;-68
2023/07/20 09:34:55;;;;;;;0.50;0.43;;;20.70;99.90;;;;;;4914523;29;20467;-69
2023/07/20 09:37:22;;;;;;;0.23;0.23;;;20.80;99.90;;;;;;4914571;29;20496;-69
2023/07/20 09:39:52;;;;;;;1.50;0.40;;;21.10;99.90;;;;;;4914267;29;20294;-69
2023/07/20 09:42:19;;;;;;;0.50;0.50;;;21.30;99.90;;;;;;4914347;29;20460;-69
2023/07/20 09:44:47;;;;;;;0.50;0.50;;;21.50;99.90;;;;;;4914467;29;20470;-69
2023/07/20 09:47:13;;;;;;;0.50;0.50;;;21.60;99.90;;;;;;4914427;29;20496;-69
2023/07/20 09:49:41;;;;;;;0.50;0.50;;;21.50;99.90;;;;;;4913914;29;20591;-69
2023/07/20 09:52:09;;;;;;;0.50;0.50;;;21.50;99.90;;;;;;4914401;29;20501;-69
2023/07/20 09:54:38;;;;;;;1.07;0.50;;;21.60;99.90;;;;;;4914096;29;20560;-69
2023/07/20 09:57:07;;;;;;;0.30;0.30;;;21.50;99.90;;;;;;4914384;29;20502;-69
2023/07/20 09:59:34;;;;;;;0.73;0.73;;;21.20;99.90;;;;;;4914479;29;20470;-69
2023/07/20 10:02:05;;;;;;;0.50;0.50;;;20.70;99.90;;;;;;4914398;29;20469;-69
2023/07/20 10:04:33;;;;;;;0.83;0.53;;;20.20;99.90;;;;;;4914217;29;20480;-69
2023/07/20 10:07:04;;;;;;;0.57;0.57;;;19.60;99.90;;;;;;4914111;29;20548;-69
2023/07/20 10:09:33;;;;;;;0.80;0.70;;;19.40;99.90;;;;;;4914515;29;20452;-69
2023/07/20 10:12:01;;;;;;;0.70;0.70;;;19.20;99.90;;;;;;4914433;29;20561;-69
2023/07/20 10:14:33;;;;;;;0.63;0.63;;;19.00;99.90;;;;;;4913449;29;20470;-69
2023/07/20 10:17:04;;;;;;;0.60;0.60;;;18.90;99.90;;;;;;4914367;29;20589;-67
2023/07/20 10:19:38;;;;;;;0.53;0.53;;;19.10;99.90;;;;;;4914178;29;20887;-68
2023/07/20 10:22:08;;;;;;;1.23;1.13;;;19.10;99.90;;;;;;4914183;29;20970;-69
2023/07/20 10:24:36;;;;;;;0.63;0.63;;;19.30;99.90;;;;;;4914271;29;20609;-68
2023/07/20 10:27:02;;;;;;;0.63;0.63;;;19.40;99.90;;;;;;4914100;29;20489;-68
2023/07/20 10:29:30;;;;;;;0.80;0.80;;;19.40;99.90;;;;;;4913600;29;20473;-68
2023/07/20 10:31:58;;;;;;;0.53;0.53;;;19.30;99.90;;;;;;4913962;29;20478;-68
2023/07/20 10:34:26;;;;;;;1.50;0.53;;;19.30;99.90;;;;;;4913969;29;20492;-68
2023/07/20 10:36:54;;;;;;;1.20;0.70;;;19.20;99.90;;;;;;4913933;29;20498;-69
2023/07/20 10:39:25;;;;;;;0.57;0.57;;;19.30;99.90;;;;;;4905060;29;20471;-68
2023/07/20 10:42:01;;;;;;;7.83;0.93;;;19.30;99.90;;;;;;4894822;29;20754;-71
2023/07/20 10:44:27;;;;;;;0.60;0.60;;;19.40;99.90;;;;;;4894412;29;20467;-67
2023/07/20 10:47:00;;;;;;;0.60;0.60;;;19.50;99.90;;;;;;4894804;29;20519;-69
2023/07/20 10:49:28;;;;;;;5.70;1.20;;;19.60;99.90;;;;;;4895018;29;20844;-66
2023/07/20 10:51:59;;;;;;;0.40;0.40;;;19.80;99.90;;;;;;4894988;29;20467;-68
2023/07/20 10:54:48;;;;;;;0.20;0.20;;;20.10;99.90;;;;;;4895267;29;20479;-69
2023/07/20 10:57:24;;;;;;;0.20;0.20;;;20.50;99.90;;;;;;4894765;29;20582;-69
2023/07/20 10:59:51;;;;;;;0.50;0.47;;;20.60;99.90;;;;;;4896747;29;20469;-69
2023/07/20 11:02:19;;;;;;;0.77;0.77;;;20.50;99.90;;;;;;4898609;29;20566;-68
2023/07/20 11:04:48;;;;;;;0.57;0.57;;;20.20;99.90;;;;;;4898443;29;20468;-69
2023/07/20 11:07:36;;;;;;;0.40;0.40;;;20.00;99.90;;;;;;4898450;29;20520;-70
2023/07/20 11:10:14;;;;;;;0.33;0.33;;;19.70;99.90;;;;;;4898714;29;20482;-69
2023/07/20 11:12:41;;;;;;;0.70;0.70;;;19.70;99.90;;;;;;4898260;29;20790;-69
2023/07/20 11:15:08;;;;;;;0.30;0.30;;;19.70;99.90;;;;;;4898187;29;20467;-68
2023/07/20 11:17:35;;;;;;;0.40;0.40;;;19.70;99.90;;;;;;4898063;29;20503;-70
2023/07/20 11:20:04;;;;;;;3.23;0.57;;;19.80;99.90;;;;;;4898358;29;20560;-71
2023/07/20 11:22:32;;;;;;;0.40;0.40;;;19.90;99.90;;;;;;4898260;29;20485;-70
2023/07/20 11:24:59;;;;;;;0.73;0.70;;;19.90;99.90;;;;;;4898133;29;20474;-70
2023/07/20 11:27:26;;;;;;;0.60;0.60;;;20.00;99.90;;;;;;4897566;29;20497;-70
2023/07/20 11:29:53;;;;;;;0.57;0.50;;;20.20;99.90;;;;;;4898278;29;20788;-70
2023/07/20 11:32:22;;;;;;;0.40;0.40;;;20.50;99.90;;;;;;4897927;29;20473;-70
2023/07/20 11:34:49;;;;;;;2.33;0.70;;;20.70;99.90;;;;;;4897706;29;20470;-70
2023/07/20 11:37:18;;;;;;;0.63;0.60;;;20.90;99.90;;;;;;4897963;29;20510;-70
2023/07/20 11:39:44;;;;;;;0.30;0.30;;;20.90;99.90;;;;;;4906748;29;20849;-70
2023/07/20 11:42:12;;;;;;;0.60;0.60;;;20.80;99.90;;;;;;4916251;29;20525;-68
2023/07/20 11:44:39;;;;;;;0.30;0.30;;;20.90;99.90;;;;;;4916667;29;20470;-70
2023/07/20 11:47:08;;;;;;;0.27;0.27;;;21.10;99.90;;;;;;4916244;29;20861;-70
2023/07/20 11:49:37;;;;;;;0.30;0.30;;;21.10;99.90;;;;;;4916876;29;20478;-70
2023/07/20 11:52:05;;;;;;;0.40;0.40;;;21.00;99.90;;;;;;4916702;29;20570;-70
2023/07/20 11:54:34;;;;;;;0.67;0.67;;;21.00;99.90;;;;;;4916449;29;20790;-70
2023/07/20 11:57:02;;;;;;;0.70;0.70;;;20.80;99.90;;;;;;4916191;29;20501;-71
2023/07/20 11:59:28;;;;;;;0.50;0.50;;;20.60;99.90;;;;;;4915956;29;20489;-69
2023/07/20 12:01:55;;;;;;;3.30;0.70;;;20.60;99.90;;;;;;4916970;29;20503;-69
2023/07/20 12:04:24;;;;;;;0.20;0.20;;;20.60;99.90;;;;;;4916287;29;20469;-70
2023/07/20 12:06:50;;;;;;;0.30;0.30;;;20.60;99.90;;;;;;4916505;29;20485;-69
2023/07/20 12:09:18;;;;;;;0.20;0.20;;;20.70;99.90;;;;;;4916485;29;20469;-69
2023/07/20 12:11:46;;;;;;;0.53;0.53;;;20.80;99.90;;;;;;4915751;29;20477;-69
2023/07/20 12:14:13;;;;;;;1.03;0.30;;;20.80;99.90;;;;;;4915731;29;20840;-69
2023/07/20 12:16:40;;;;;;;0.30;0.30;;;20.60;99.90;;;;;;4916087;29;20512;-69
2023/07/20 12:19:07;;;;;;;0.30;0.30;;;20.40;99.90;;;;;;4916080;29;20968;-68
2023/07/20 12:21:38;;;;;;;2.40;0.57;;;20.20;99.90;;;;;;4916369;29;20477;-69
2023/07/20 12:24:05;;;;;;;0.30;0.30;;;20.00;99.90;;;;;;4916048;29;20513;-70
2023/07/20 12:26:33;;;;;;;0.23;0.23;;;20.00;99.90;;;;;;4916010;29;20492;-68
2023/07/20 12:29:03;;;;;;;0.23;0.23;;;20.00;99.90;;;;;;4915766;29;20489;-69
2023/07/20 12:31:30;;;;;;;0.30;0.30;;;19.90;99.90;;;;;;4916122;29;20481;-69
2023/07/20 12:33:58;;;;;;;0.20;0.20;;;19.90;99.90;;;;;;4915698;29;20842;-68
2023/07/20 12:36:25;;;;;;;0.97;0.40;;;20.00;99.90;;;;;;4915650;29;20551;-69
2023/07/20 12:38:52;;;;;;;0.20;0.20;;;20.20;99.90;;;;;;4913216;29;20480;-70
2023/07/20 12:41:20;;;;;;;2.77;0.30;;;20.40;99.90;;;;;;4915467;29;20497;-69
2023/07/20 12:43:47;;;;;;;4.00;0.57;;;20.50;99.90;;;;;;4915236;29;20489;-69
2023/07/20 12:46:15;;;;;;;0.40;0.40;;;20.50;99.90;;;;;;4915475;29;20496;-70
2023/07/20 12:48:42;;;;;;;1.43;0.30;;;20.50;99.90;;;;;;4915562;29;20474;-69
2023/07/20 12:51:09;;;;;;;0.90;0.40;;;20.30;99.90;;;;;;4915583;29;20476;-69
2023/07/20 12:53:36;;;;;;;0.40;0.40;;;20.20;99.90;;;;;;4915356;29;20988;-69
2023/07/20 12:56:04;;;;;;;0.20;0.20;;;20.20;99.90;;;;;;4915477;29;20529;-69
2023/07/20 12:58:30;;;;;;;0.40;0.40;;;20.30;99.90;;;;;;4915058;29;20521;-69
2023/07/20 13:00:57;;;;;;;0.30;0.30;;;20.30;99.90;;;;;;4915474;29;20469;-69
2023/07/20 13:03:25;;;;;;;3.93;0.40;;;20.50;99.90;;;;;;4915311;29;20470;-69
2023/07/20 13:05:52;;;;;;;0.83;0.20;;;21.00;99.90;;;;;;4915048;29;20482;-69
2023/07/20 13:08:19;;;;;;;0.40;0.40;;;21.30;99.90;;;;;;4915055;29;20839;-69
2023/07/20 13:10:46;;;;;;;2.40;0.37;;;21.50;99.90;;;;;;4915071;29;20493;-69
2023/07/20 13:13:13;;;;;;;0.20;0.20;;;21.50;99.90;;;;;;4914747;29;20574;-68
2023/07/20 13:15:44;;;;;;;0.30;0.30;;;21.50;99.90;;;;;;4914584;29;20505;-69
2023/07/20 13:18:11;;;;;;;0.47;0.47;;;21.50;99.90;;;;;;4914614;29;20500;-69
2023/07/20 13:20:39;;;;;;;0.50;0.50;;;21.60;99.90;;;;;;4915040;29;20485;-69
2023/07/20 13:23:06;;;;;;;0.33;0.33;;;21.80;99.90;;;;;;4913834;29;20524;-68
2023/07/20 13:25:32;;;;;;;0.40;0.40;;;21.80;99.90;;;;;;4914919;29;20851;-70
2023/07/20 13:27:59;;;;;;;0.37;0.37;;;21.80;99.90;;;;;;4914170;29;20905;-70
2023/07/20 13:30:26;;;;;;;0.40;0.40;;;21.70;99.90;;;;;;4915158;29;20468;-70
2023/07/20 13:32:53;;;;;;;5.73;0.60;;;21.60;99.90;;;;;;4914670;29;20463;-70
2023/07/20 13:35:19;;;;;;;0.50;0.50;;;21.30;99.90;;;;;;4914375;29;20467;-70
2023/07/20 13:37:47;;;;;;;0.40;0.40;;;21.00;99.90;;;;;;4914673;29;20494;-70
2023/07/20 13:40:18;;;;;;;0.33;0.33;;;20.70;99.90;;;;;;4907003;29;20482;-70
2023/07/20 13:42:45;;;;;;;1.90;0.30;;;20.30;99.90;;;;;;4912571;29;20466;-69
2023/07/20 13:45:11;;;;;;;0.20;0.20;;;19.80;99.90;;;;;;4914412;29;20473;-70
2023/07/20 13:47:38;;;;;;;0.23;0.20;;;19.40;99.90;;;;;;4914476;29;20553;-70
2023/07/20 13:50:06;;;;;;;0.20;0.20;;;19.20;99.90;;;;;;4914454;29;20474;-70
2023/07/20 13:52:32;;;;;;;0.30;0.20;;;19.20;99.90;;;;;;4914693;29;20980;-70
2023/07/20 13:55:00;;;;;;;0.97;0.97;;;19.20;99.90;;;;;;4914628;29;20510;-70
2023/07/20 13:57:27;;;;;;;0.30;0.30;;;19.20;99.90;;;;;;4913722;29;20502;-70
2023/07/20 13:59:54;;;;;;;0.20;0.20;;;19.30;99.90;;;;;;4914487;29;20466;-70
2023/07/20 14:02:20;;;;;;;1.13;0.40;;;19.20;99.90;;;;;;4914005;29;20474;-70
2023/07/20 14:04:48;;;;;;;0.33;0.33;;;19.30;99.90;;;;;;4914255;29;20896;-70
2023/07/20 14:07:14;;;;;;;0.20;0.20;;;19.40;99.90;;;;;;4914003;29;20487;-70
2023/07/20 14:09:41;;;;;;;0.50;0.50;;;19.50;99.90;;;;;;4914366;29;20474;-70
2023/07/20 14:12:12;;;;;;;1.80;0.30;;;19.50;99.90;;;;;;4913757;29;20515;-70
2023/07/20 14:14:38;;;;;;;0.30;0.30;;;19.50;99.90;;;;;;4914126;29;20470;-70
2023/07/20 14:17:05;;;;;;;0.20;0.20;;;19.60;99.90;;;;;;4913609;29;20494;-71
2023/07/20 14:19:32;;;;;;;0.40;0.40;;;19.70;99.90;;;;;;4914390;29;20466;-70
2023/07/20 14:21:59;;;;;;;0.20;0.20;;;19.70;99.90;;;;;;4914113;29;20471;-70
2023/07/20 14:24:26;;;;;;;0.40;0.40;;;19.70;99.90;;;;;;4913934;29;20553;-70
2023/07/20 14:26:54;;;;;;;0.20;0.20;;;19.50;99.90;;;;;;4914012;29;20496;-70
2023/07/20 14:29:22;;;;;;;0.20;0.20;;;19.40;99.90;;;;;;4913512;29;20470;-70
2023/07/20 14:31:50;;;;;;;0.50;0.50;;;19.30;99.90;;;;;;4913875;29;20965;-70
2023/07/20 14:34:18;;;;;;;3.20;0.40;;;19.20;99.90;;;;;;4914460;29;20466;-70
2023/07/20 14:36:44;;;;;;;0.93;0.43;;;19.10;99.90;;;;;;4917770;29;20486;-72
2023/07/20 14:39:11;;;;;;;0.97;0.30;;;19.00;99.90;;;;;;4915732;29;20503;-72
2023/07/20 14:41:38;;;;;;;2.10;0.37;;;18.90;99.90;;;;;;4917719;29;20466;-73
2023/07/20 14:44:04;;;;;;;0.47;0.47;;;18.90;99.90;;;;;;4917032;29;20478;-72
2023/07/20 14:46:33;;;;;;;0.90;0.90;;;18.80;99.90;;;;;;4917976;29;20545;-72
2023/07/20 14:48:59;;;;;;;0.37;0.37;;;18.80;99.90;;;;;;4917602;29;20553;-72
2023/07/20 14:51:31;;;;;;;1.30;1.30;;;18.80;99.90;;;;;;4917767;29;20474;-72
2023/07/20 14:53:58;;;;;;;0.50;0.50;;;18.90;99.90;;;;;;4917486;29;20565;-72
2023/07/20 14:56:24;;;;;;;0.70;0.70;;;18.90;99.90;;;;;;4917430;29;21092;-72
2023/07/20 14:58:51;;;;;;;0.93;0.47;;;18.80;99.90;;;;;;4917007;29;20520;-72
2023/07/20 15:01:18;;;;;;;0.73;0.73;;;18.70;99.90;;;;;;4918734;29;20918;-73
2023/07/20 15:03:46;;;;;;;0.90;0.43;;;18.70;99.90;;;;;;4918164;29;20493;-73
2023/07/20 15:06:12;;;;;;;1.60;0.40;;;18.80;99.90;;;;;;4917066;29;20497;-73
2023/07/20 15:08:39;;;;;;;0.60;0.40;;;18.90;99.90;;;;;;4917595;29;20529;-71
2023/07/20 15:11:06;;;;;;;0.63;0.63;;;19.00;99.90;;;;;;4917130;29;20467;-70
2023/07/20 15:13:32;;;;;;;1.03;0.63;;;19.10;99.90;;;;;;4916770;29;20479;-70
2023/07/20 15:15:59;;;;;;;0.53;0.53;;;19.10;99.90;;;;;;4917217;29;20502;-70
2023/07/20 15:18:26;;;;;;;0.90;0.90;;;19.20;99.90;;;;;;4917133;29;20502;-70
2023/07/20 15:20:54;;;;;;;0.40;0.40;;;19.40;99.90;;;;;;4917321;29;20466;-70
2023/07/20 15:23:21;;;;;;;0.90;0.90;;;19.50;99.90;;;;;;4917398;29;20595;-70
2023/07/20 15:25:47;;;;;;;15.53;1.33;;;19.50;99.90;;;;;;4916667;29;20541;-71
2023/07/20 15:28:14;;;;;;;0.90;0.90;;;19.60;99.90;;;;;;4916819;29;20469;-71
2023/07/20 15:30:41;;;;;;;0.70;0.70;;;19.60;99.90;;;;;;4917089;29;20554;-70
2023/07/20 15:33:07;;;;;;;0.60;0.60;;;19.70;99.90;;;;;;4917149;29;20472;-71
2023/07/20 15:35:34;;;;;;;3.03;0.70;;;19.70;99.90;;;;;;4916818;29;20467;-71
2023/07/20 15:38:02;;;;;;;0.77;0.77;;;19.80;99.90;;;;;;4916767;29;20985;-72
2023/07/20 15:40:29;;;;;;;0.60;0.57;;;19.80;99.90;;;;;;4907116;29;20468;-69
2023/07/20 15:42:55;;;;;;;0.77;0.77;;;19.80;99.90;;;;;;4879106;29;20779;-70
2023/07/20 15:45:23;;;;;;;2.10;0.73;;;19.80;99.90;;;;;;4879067;29;20634;-70
2023/07/20 15:47:50;;;;;;;0.73;0.60;;;19.80;99.90;;;;;;4879072;29;20471;-69
2023/07/20 15:50:17;;;;;;;0.40;0.40;;;19.90;99.90;;;;;;4879502;29;20497;-69
2023/07/20 15:52:43;;;;;;;0.67;0.67;;;19.80;99.90;;;;;;4879193;29;20958;-70
2023/07/20 15:55:12;;;;;;;0.80;0.80;;;19.70;99.90;;;;;;4878932;29;20480;-69
2023/07/20 15:57:39;;;;;;;1.13;0.40;;;19.70;99.90;;;;;;4878723;29;20864;-70
2023/07/20 16:00:10;;;;;;;0.50;0.30;;;19.80;99.90;;;;;;4879817;29;20480;-70
2023/07/20 16:02:36;;;;;;;0.70;0.70;;;19.90;99.90;;;;;;4879345;29;20557;-70
2023/07/20 16:05:03;;;;;;;0.70;0.70;;;19.80;99.90;;;;;;4879185;29;20473;-69
2023/07/20 16:07:31;;;;;;;0.60;0.57;;;19.70;99.90;;;;;;4878896;29;20490;-70
2023/07/20 16:10:00;;;;;;;0.60;0.60;;;20.00;99.90;;;;;;4879307;29;20559;-69
2023/07/20 16:12:31;;;;;;;0.60;0.60;;;20.20;99.90;;;;;;4879102;29;20530;-70
2023/07/20 16:14:57;;;;;;;3.40;0.70;;;20.30;99.90;;;;;;4879320;29;20481;-69
2023/07/20 16:17:24;;;;;;;0.60;0.60;;;20.20;99.90;;;;;;4943163;23;20692;-70
2023/07/20 16:19:51;;;;;;;0.57;0.57;;;20.20;99.90;;;;;;4934848;29;20963;-70
2023/07/20 16:22:17;;;;;;;0.87;0.63;;;20.50;99.90;;;;;;4934453;29;20847;-70
2023/07/20 16:24:44;;;;;;;0.40;0.40;;;20.30;99.90;;;;;;4934448;29;20468;-70
2023/07/20 16:27:11;;;;;;;2.00;0.40;;;20.20;99.90;;;;;;4921073;29;20494;-70
2023/07/20 16:29:39;;;;;;;2.20;0.57;;;20.30;99.90;;;;;;4915702;29;20545;-70
2023/07/20 16:32:06;;;;;;;0.30;0.30;;;20.40;99.90;;;;;;4915977;29;20490;-70
2023/07/20 16:34:33;;;;;;;0.60;0.60;;;20.40;99.90;;;;;;4915306;29;20501;-70
2023/07/20 16:37:00;;;;;;;0.30;0.30;;;20.40;99.90;;;;;;4915389;29;20488;-71
2023/07/20 16:39:26;;;;;;;0.30;0.30;;;20.40;99.90;;;;;;4915019;29;20493;-72
2023/07/20 16:41:53;;;;;;;0.50;0.50;;;20.30;99.90;;;;;;4915414;29;20781;-71
2023/07/20 16:44:20;;;;;;;0.20;0.20;;;20.30;99.90;;;;;;4914703;29;20579;-71
2023/07/20 16:46:48;;;;;;;0.53;0.53;;;20.40;99.90;;;;;;4915416;29;20522;-71
2023/07/20 16:49:14;;;;;;;2.47;0.60;;;20.50;99.90;;;;;;4915319;29;20473;-71